sensor_id;sensor_type;location;lat;lon;timestamp;P1;P2;P0
56495;PMS5003;42804;55.762;38.084;2023-11-19T00:00:20;95.75;68.00;46.00
56495;PMS5003;42804;55.762;38.084;2023-11-19T00:02:48;85.75;61.50;34.75
56495;PMS5003;42804;55.762;38.084;2023-11-19T00:05:17;81.25;61.75;42.25
56495;PMS5003;42804;55.762;38.084;2023-11-19T00:07:46;94.50;69.50;44.75
56495;PMS5003;42804;55.762;38.084;2023-11-19T00:10:15;99.50;71.50;46.00
56495;PMS5003;42804;55.762;38.084;2023-11-19T00:12:47;89.00;69.00;44.75
56495;PMS5003;42804;55.762;38.084;2023-11-19T00:15:16;67.50;57.75;45.00
56495;PMS5003;42804;55.762;38.084;2023-11-19T00:17:46;85.00;66.25;42.25
56495;PMS5003;42804;55.762;38.084;2023-11-19T00:20:16;84.25;62.25;42.50
56495;PMS5003;42804;55.762;38.084;2023-11-19T00:22:46;88.50;67.25;45.50
56495;PMS5003;42804;55.762;38.084;2023-11-19T00:25:18;87.00;68.25;44.00
56495;PMS5003;42804;55.762;38.084;2023-11-19T00:27:47;82.60;61.00;40.00
56495;PMS5003;42804;55.762;38.084;2023-11-19T00:30:15;85.60;66.40;42.80
56495;PMS5003;42804;55.762;38.084;2023-11-19T00:32:43;91.75;69.75;43.50
56495;PMS5003;42804;55.762;38.084;2023-11-19T00:35:12;84.80;67.20;43.00
56495;PMS5003;42804;55.762;38.084;2023-11-19T00:37:42;77.40;60.80;36.00
56495;PMS5003;42804;55.762;38.084;2023-11-19T00:40:14;72.40;45.40;33.20
56495;PMS5003;42804;55.762;38.084;2023-11-19T00:42:45;91.00;66.25;42.25
56495;PMS5003;42804;55.762;38.084;2023-11-19T00:45:14;77.75;60.75;39.50
56495;PMS5003;42804;55.762;38.084;2023-11-19T00:47:43;76.50;57.50;34.00
56495;PMS5003;42804;55.762;38.084;2023-11-19T00:50:11;80.40;63.80;42.20
56495;PMS5003;42804;55.762;38.084;2023-11-19T00:52:40;71.60;56.80;37.00
56495;PMS5003;42804;55.762;38.084;2023-11-19T00:55:07;78.80;59.20;38.60
56495;PMS5003;42804;55.762;38.084;2023-11-19T00:57:37;87.75;64.25;41.75
56495;PMS5003;42804;55.762;38.084;2023-11-19T01:00:06;86.00;65.50;42.00
56495;PMS5003;42804;55.762;38.084;2023-11-19T01:02:46;75.50;58.00;34.00
56495;PMS5003;42804;55.762;38.084;2023-11-19T01:05:19;83.20;60.80;39.40
56495;PMS5003;42804;55.762;38.084;2023-11-19T01:07:51;75.00;60.00;40.00
56495;PMS5003;42804;55.762;38.084;2023-11-19T01:10:22;80.50;63.25;40.00
56495;PMS5003;42804;55.762;38.084;2023-11-19T01:12:53;86.75;66.00;43.00
56495;PMS5003;42804;55.762;38.084;2023-11-19T01:15:21;86.80;64.00;41.20
56495;PMS5003;42804;55.762;38.084;2023-11-19T01:17:50;68.60;56.20;36.00
56495;PMS5003;42804;55.762;38.084;2023-11-19T01:20:20;84.00;61.00;39.80
56495;PMS5003;42804;55.762;38.084;2023-11-19T01:22:48;61.20;49.80;28.00
56495;PMS5003;42804;55.762;38.084;2023-11-19T01:25:17;69.00;55.00;36.20
56495;PMS5003;42804;55.762;38.084;2023-11-19T01:27:46;70.80;54.80;34.60
56495;PMS5003;42804;55.762;38.084;2023-11-19T01:30:16;54.40;41.80;24.00
56495;PMS5003;42804;55.762;38.084;2023-11-19T01:32:44;52.80;36.60;15.20
56495;PMS5003;42804;55.762;38.084;2023-11-19T01:35:12;57.80;43.20;21.00
56495;PMS5003;42804;55.762;38.084;2023-11-19T01:37:41;65.00;48.60;31.20
56495;PMS5003;42804;55.762;38.084;2023-11-19T01:40:10;72.40;57.80;36.00
56495;PMS5003;42804;55.762;38.084;2023-11-19T01:42:39;78.20;58.00;37.80
56495;PMS5003;42804;55.762;38.084;2023-11-19T01:45:08;75.80;59.00;39.40
56495;PMS5003;42804;55.762;38.084;2023-11-19T01:47:39;73.60;54.60;35.20
56495;PMS5003;42804;55.762;38.084;2023-11-19T01:50:07;74.00;57.80;36.40
56495;PMS5003;42804;55.762;38.084;2023-11-19T01:52:36;70.80;52.80;35.20
56495;PMS5003;42804;55.762;38.084;2023-11-19T01:55:05;72.40;53.20;36.00
56495;PMS5003;42804;55.762;38.084;2023-11-19T01:57:35;59.20;41.60;15.20
56495;PMS5003;42804;55.762;38.084;2023-11-19T02:00:08;80.60;60.40;39.00
56495;PMS5003;42804;55.762;38.084;2023-11-19T02:02:44;80.00;57.80;34.40
56495;PMS5003;42804;55.762;38.084;2023-11-19T02:05:14;71.20;51.40;33.00
56495;PMS5003;42804;55.762;38.084;2023-11-19T02:07:43;55.00;44.60;24.20
56495;PMS5003;42804;55.762;38.084;2023-11-19T02:10:13;73.60;48.20;34.00
56495;PMS5003;42804;55.762;38.084;2023-11-19T02:12:44;72.40;55.00;35.20
56495;PMS5003;42804;55.762;38.084;2023-11-19T02:15:12;86.00;63.60;39.80
56495;PMS5003;42804;55.762;38.084;2023-11-19T02:17:41;76.20;59.20;38.60
56495;PMS5003;42804;55.762;38.084;2023-11-19T02:20:12;74.20;55.80;36.00
56495;PMS5003;42804;55.762;38.084;2023-11-19T02:22:41;69.00;44.40;27.60
56495;PMS5003;42804;55.762;38.084;2023-11-19T02:25:12;71.20;54.00;33.60
56495;PMS5003;42804;55.762;38.084;2023-11-19T02:27:51;81.00;60.60;40.80
56495;PMS5003;42804;55.762;38.084;2023-11-19T02:30:23;81.40;60.40;40.00
56495;PMS5003;42804;55.762;38.084;2023-11-19T02:32:53;75.25;57.25;34.50
56495;PMS5003;42804;55.762;38.084;2023-11-19T02:35:24;69.40;46.20;28.40
56495;PMS5003;42804;55.762;38.084;2023-11-19T02:37:54;69.20;54.20;33.60
56495;PMS5003;42804;55.762;38.084;2023-11-19T02:40:23;82.80;63.80;39.20
56495;PMS5003;42804;55.762;38.084;2023-11-19T02:42:53;49.80;34.60;12.60
56495;PMS5003;42804;55.762;38.084;2023-11-19T02:45:23;75.40;57.00;37.20
56495;PMS5003;42804;55.762;38.084;2023-11-19T02:47:52;73.20;53.60;33.40
56495;PMS5003;42804;55.762;38.084;2023-11-19T02:50:22;80.20;60.80;40.80
56495;PMS5003;42804;55.762;38.084;2023-11-19T02:52:53;83.60;61.00;37.80
56495;PMS5003;42804;55.762;38.084;2023-11-19T02:55:24;77.40;57.20;36.00
56495;PMS5003;42804;55.762;38.084;2023-11-19T02:57:56;75.80;58.60;38.00
56495;PMS5003;42804;55.762;38.084;2023-11-19T03:00:26;73.40;52.80;36.20
56495;PMS5003;42804;55.762;38.084;2023-11-19T03:03:03;56.40;43.80;26.20
56495;PMS5003;42804;55.762;38.084;2023-11-19T03:05:45;67.60;51.00;34.40
56495;PMS5003;42804;55.762;38.084;2023-11-19T03:08:15;62.00;50.00;32.00
56495;PMS5003;42804;55.762;38.084;2023-11-19T03:10:47;76.40;55.20;36.00
56495;PMS5003;42804;55.762;38.084;2023-11-19T03:13:17;76.60;60.40;39.60
56495;PMS5003;42804;55.762;38.084;2023-11-19T03:15:45;65.20;51.00;30.00
56495;PMS5003;42804;55.762;38.084;2023-11-19T03:18:14;79.80;63.20;39.00
56495;PMS5003;42804;55.762;38.084;2023-11-19T03:20:42;84.00;62.00;41.00
56495;PMS5003;42804;55.762;38.084;2023-11-19T03:23:10;81.40;58.80;39.20
56495;PMS5003;42804;55.762;38.084;2023-11-19T03:25:38;86.80;64.40;40.40
56495;PMS5003;42804;55.762;38.084;2023-11-19T03:28:07;79.20;59.60;37.80
56495;PMS5003;42804;55.762;38.084;2023-11-19T03:30:37;82.80;60.00;37.40
56495;PMS5003;42804;55.762;38.084;2023-11-19T03:33:05;87.50;68.50;43.50
56495;PMS5003;42804;55.762;38.084;2023-11-19T03:35:33;86.25;65.00;39.75
56495;PMS5003;42804;55.762;38.084;2023-11-19T03:38:02;89.40;65.60;42.00
56495;PMS5003;42804;55.762;38.084;2023-11-19T03:40:30;81.40;64.60;42.00
56495;PMS5003;42804;55.762;38.084;2023-11-19T03:42:58;82.60;63.40;40.00
56495;PMS5003;42804;55.762;38.084;2023-11-19T03:45:27;66.40;51.20;35.20
56495;PMS5003;42804;55.762;38.084;2023-11-19T03:47:56;59.60;42.80;25.60
56495;PMS5003;42804;55.762;38.084;2023-11-19T03:50:25;64.80;46.60;32.00
56495;PMS5003;42804;55.762;38.084;2023-11-19T03:52:53;55.00;48.20;30.40
56495;PMS5003;42804;55.762;38.084;2023-11-19T03:55:21;41.80;34.80;22.00
56495;PMS5003;42804;55.762;38.084;2023-11-19T03:57:49;53.00;44.00;28.80
56495;PMS5003;42804;55.762;38.084;2023-11-19T04:00:18;55.00;40.00;24.60
56495;PMS5003;42804;55.762;38.084;2023-11-19T04:02:48;41.40;33.00;27.60
56495;PMS5003;42804;55.762;38.084;2023-11-19T04:05:17;44.80;42.40;29.40
56495;PMS5003;42804;55.762;38.084;2023-11-19T04:07:46;29.60;28.80;19.80
56495;PMS5003;42804;55.762;38.084;2023-11-19T04:10:14;55.20;45.00;30.00
56495;PMS5003;42804;55.762;38.084;2023-11-19T04:12:44;43.20;33.60;18.20
56495;PMS5003;42804;55.762;38.084;2023-11-19T04:15:13;50.60;36.60;23.20
56495;PMS5003;42804;55.762;38.084;2023-11-19T04:17:42;47.00;38.40;26.60
56495;PMS5003;42804;55.762;38.084;2023-11-19T04:20:10;53.00;42.80;28.80
56495;PMS5003;42804;55.762;38.084;2023-11-19T04:22:43;48.40;38.80;27.40
56495;PMS5003;42804;55.762;38.084;2023-11-19T04:25:11;46.00;36.00;24.40
56495;PMS5003;42804;55.762;38.084;2023-11-19T04:27:41;47.40;35.00;21.00
56495;PMS5003;42804;55.762;38.084;2023-11-19T04:30:10;33.20;28.20;19.00
56495;PMS5003;42804;55.762;38.084;2023-11-19T04:32:38;50.20;41.60;27.00
56495;PMS5003;42804;55.762;38.084;2023-11-19T04:35:07;51.00;43.80;30.00
56495;PMS5003;42804;55.762;38.084;2023-11-19T04:37:36;41.80;35.60;24.00
56495;PMS5003;42804;55.762;38.084;2023-11-19T04:40:06;42.80;33.80;19.40
56495;PMS5003;42804;55.762;38.084;2023-11-19T04:42:35;62.00;46.20;30.00
56495;PMS5003;42804;55.762;38.084;2023-11-19T04:45:04;31.60;22.60;4.80
56495;PMS5003;42804;55.762;38.084;2023-11-19T04:47:33;51.00;35.00;27.00
56495;PMS5003;42804;55.762;38.084;2023-11-19T04:50:02;47.40;42.00;28.00
56495;PMS5003;42804;55.762;38.084;2023-11-19T04:52:30;53.40;45.80;30.20
56495;PMS5003;42804;55.762;38.084;2023-11-19T04:54:59;57.60;46.60;31.40
56495;PMS5003;42804;55.762;38.084;2023-11-19T04:57:30;30.60;20.80;17.60
56495;PMS5003;42804;55.762;38.084;2023-11-19T04:59:59;54.40;45.00;29.20
56495;PMS5003;42804;55.762;38.084;2023-11-19T05:02:29;41.60;38.80;28.40
56495;PMS5003;42804;55.762;38.084;2023-11-19T05:04:58;43.60;36.40;20.40
56495;PMS5003;42804;55.762;38.084;2023-11-19T05:07:26;45.80;39.00;21.40
56495;PMS5003;42804;55.762;38.084;2023-11-19T05:09:54;59.00;47.80;31.40
56495;PMS5003;42804;55.762;38.084;2023-11-19T05:12:23;48.80;44.20;27.20
56495;PMS5003;42804;55.762;38.084;2023-11-19T05:14:52;57.60;45.60;28.20
56495;PMS5003;42804;55.762;38.084;2023-11-19T05:17:21;54.00;44.60;27.60
56495;PMS5003;42804;55.762;38.084;2023-11-19T05:19:49;41.40;25.60;18.60
56495;PMS5003;42804;55.762;38.084;2023-11-19T05:22:17;46.00;37.80;22.60
56495;PMS5003;42804;55.762;38.084;2023-11-19T05:24:47;52.00;45.00;25.80
56495;PMS5003;42804;55.762;38.084;2023-11-19T05:27:16;48.40;39.40;21.00
56495;PMS5003;42804;55.762;38.084;2023-11-19T05:29:44;43.40;34.00;21.00
56495;PMS5003;42804;55.762;38.084;2023-11-19T05:32:14;48.80;43.00;27.80
56495;PMS5003;42804;55.762;38.084;2023-11-19T05:34:42;48.80;42.60;25.80
56495;PMS5003;42804;55.762;38.084;2023-11-19T05:37:13;49.40;40.80;28.80
56495;PMS5003;42804;55.762;38.084;2023-11-19T05:39:41;46.00;45.00;30.00
56495;PMS5003;42804;55.762;38.084;2023-11-19T05:42:10;51.60;41.00;28.40
56495;PMS5003;42804;55.762;38.084;2023-11-19T05:44:38;56.20;48.00;30.60
56495;PMS5003;42804;55.762;38.084;2023-11-19T05:47:07;52.80;45.40;27.20
56495;PMS5003;42804;55.762;38.084;2023-11-19T05:49:37;55.40;48.00;30.00
56495;PMS5003;42804;55.762;38.084;2023-11-19T05:52:05;54.60;47.20;30.00
56495;PMS5003;42804;55.762;38.084;2023-11-19T05:54:36;58.20;46.40;30.20
56495;PMS5003;42804;55.762;38.084;2023-11-19T05:57:05;43.60;42.40;30.00
56495;PMS5003;42804;55.762;38.084;2023-11-19T05:59:36;58.60;47.60;28.80
56495;PMS5003;42804;55.762;38.084;2023-11-19T06:02:04;47.20;40.60;28.20
56495;PMS5003;42804;55.762;38.084;2023-11-19T06:04:33;49.00;37.00;27.60
56495;PMS5003;42804;55.762;38.084;2023-11-19T06:07:03;59.60;43.60;28.20
56495;PMS5003;42804;55.762;38.084;2023-11-19T06:09:32;48.20;38.80;22.80
56495;PMS5003;42804;55.762;38.084;2023-11-19T06:12:01;42.20;24.40;21.60
56495;PMS5003;42804;55.762;38.084;2023-11-19T06:14:30;58.20;46.20;31.00
56495;PMS5003;42804;55.762;38.084;2023-11-19T06:16:58;50.00;40.80;27.60
56495;PMS5003;42804;55.762;38.084;2023-11-19T06:19:27;63.60;48.20;30.80
56495;PMS5003;42804;55.762;38.084;2023-11-19T06:21:56;52.40;36.40;22.00
56495;PMS5003;42804;55.762;38.084;2023-11-19T06:24:26;59.20;48.80;29.80
56495;PMS5003;42804;55.762;38.084;2023-11-19T06:26:54;57.00;47.20;30.80
56495;PMS5003;42804;55.762;38.084;2023-11-19T06:29:23;57.60;41.80;27.00
56495;PMS5003;42804;55.762;38.084;2023-11-19T06:31:51;57.00;44.60;27.20
56495;PMS5003;42804;55.762;38.084;2023-11-19T06:34:20;49.60;45.00;28.00
56495;PMS5003;42804;55.762;38.084;2023-11-19T06:36:48;65.40;46.20;30.80
56495;PMS5003;42804;55.762;38.084;2023-11-19T06:39:16;49.60;41.80;27.80
56495;PMS5003;42804;55.762;38.084;2023-11-19T06:41:46;46.40;39.60;27.40
56495;PMS5003;42804;55.762;38.084;2023-11-19T06:44:15;43.20;41.20;27.20
56495;PMS5003;42804;55.762;38.084;2023-11-19T06:46:44;61.20;38.40;26.80
56495;PMS5003;42804;55.762;38.084;2023-11-19T06:49:13;47.40;42.00;28.00
56495;PMS5003;42804;55.762;38.084;2023-11-19T06:51:41;47.60;40.60;24.80
56495;PMS5003;42804;55.762;38.084;2023-11-19T06:54:10;46.60;39.80;24.00
56495;PMS5003;42804;55.762;38.084;2023-11-19T06:56:39;46.20;36.20;22.40
56495;PMS5003;42804;55.762;38.084;2023-11-19T06:59:10;43.20;31.40;26.60
56495;PMS5003;42804;55.762;38.084;2023-11-19T07:01:38;41.60;36.60;27.40
56495;PMS5003;42804;55.762;38.084;2023-11-19T07:04:10;48.60;38.00;25.80
56495;PMS5003;42804;55.762;38.084;2023-11-19T07:06:39;48.40;36.40;24.20
56495;PMS5003;42804;55.762;38.084;2023-11-19T07:09:08;57.80;44.80;30.60
56495;PMS5003;42804;55.762;38.084;2023-11-19T07:11:38;48.60;33.00;21.80
56495;PMS5003;42804;55.762;38.084;2023-11-19T07:14:11;51.80;37.60;24.40
56495;PMS5003;42804;55.762;38.084;2023-11-19T07:16:40;46.80;41.00;27.40
56495;PMS5003;42804;55.762;38.084;2023-11-19T07:19:08;38.20;31.20;23.00
56495;PMS5003;42804;55.762;38.084;2023-11-19T07:21:36;36.20;33.60;23.40
56495;PMS5003;42804;55.762;38.084;2023-11-19T07:24:06;43.00;36.60;22.80
56495;PMS5003;42804;55.762;38.084;2023-11-19T07:26:35;35.60;29.40;23.20
56495;PMS5003;42804;55.762;38.084;2023-11-19T07:29:04;47.80;34.80;24.20
56495;PMS5003;42804;55.762;38.084;2023-11-19T07:31:36;52.00;40.00;27.60
56495;PMS5003;42804;55.762;38.084;2023-11-19T07:34:04;37.60;29.60;22.40
56495;PMS5003;42804;55.762;38.084;2023-11-19T07:36:33;42.40;31.80;19.80
56495;PMS5003;42804;55.762;38.084;2023-11-19T07:39:01;44.60;37.20;25.20
56495;PMS5003;42804;55.762;38.084;2023-11-19T07:41:30;35.00;29.60;22.00
56495;PMS5003;42804;55.762;38.084;2023-11-19T07:43:59;40.00;33.00;23.60
56495;PMS5003;42804;55.762;38.084;2023-11-19T07:46:28;36.00;30.20;23.60
56495;PMS5003;42804;55.762;38.084;2023-11-19T07:48:58;34.80;30.20;24.00
56495;PMS5003;42804;55.762;38.084;2023-11-19T07:51:26;38.40;33.40;23.20
56495;PMS5003;42804;55.762;38.084;2023-11-19T07:53:55;33.00;24.00;22.80
56495;PMS5003;42804;55.762;38.084;2023-11-19T07:56:23;35.20;30.40;22.80
56495;PMS5003;42804;55.762;38.084;2023-11-19T07:58:51;43.60;27.40;18.60
56495;PMS5003;42804;55.762;38.084;2023-11-19T08:01:20;50.00;39.20;26.60
56495;PMS5003;42804;55.762;38.084;2023-11-19T08:03:50;35.60;30.60;22.60
56495;PMS5003;42804;55.762;38.084;2023-11-19T08:06:23;43.20;35.60;21.40
56495;PMS5003;42804;55.762;38.084;2023-11-19T08:11:44;35.80;30.20;23.60
56495;PMS5003;42804;55.762;38.084;2023-11-19T08:14:12;44.40;34.80;26.60
56495;PMS5003;42804;55.762;38.084;2023-11-19T08:16:41;43.20;35.80;26.80
56495;PMS5003;42804;55.762;38.084;2023-11-19T08:19:09;36.20;31.40;23.60
56495;PMS5003;42804;55.762;38.084;2023-11-19T08:21:40;39.20;33.00;22.40
56495;PMS5003;42804;55.762;38.084;2023-11-19T08:24:09;30.60;29.60;24.00
56495;PMS5003;42804;55.762;38.084;2023-11-19T08:26:37;34.80;28.20;19.80
56495;PMS5003;42804;55.762;38.084;2023-11-19T08:29:06;38.40;32.20;21.40
56495;PMS5003;42804;55.762;38.084;2023-11-19T08:31:34;25.60;22.80;17.60
56495;PMS5003;42804;55.762;38.084;2023-11-19T08:34:03;29.40;22.80;15.40
56495;PMS5003;42804;55.762;38.084;2023-11-19T08:36:35;33.60;26.20;19.80
56495;PMS5003;42804;55.762;38.084;2023-11-19T08:39:05;27.20;24.00;18.80
56495;PMS5003;42804;55.762;38.084;2023-11-19T08:41:35;36.20;27.20;20.60
56495;PMS5003;42804;55.762;38.084;2023-11-19T08:44:05;33.40;28.40;20.00
56495;PMS5003;42804;55.762;38.084;2023-11-19T08:46:33;39.80;30.40;22.00
56495;PMS5003;42804;55.762;38.084;2023-11-19T08:49:02;31.00;26.20;19.40
56495;PMS5003;42804;55.762;38.084;2023-11-19T08:51:30;28.60;24.80;18.40
56495;PMS5003;42804;55.762;38.084;2023-11-19T08:53:58;24.20;21.60;15.60
56495;PMS5003;42804;55.762;38.084;2023-11-19T08:56:28;22.40;18.20;13.00
56495;PMS5003;42804;55.762;38.084;2023-11-19T08:58:59;29.80;24.20;15.40
56495;PMS5003;42804;55.762;38.084;2023-11-19T09:01:28;22.80;18.20;8.60
56495;PMS5003;42804;55.762;38.084;2023-11-19T09:03:56;24.40;22.80;15.60
56495;PMS5003;42804;55.762;38.084;2023-11-19T09:06:25;28.20;26.00;17.80
56495;PMS5003;42804;55.762;38.084;2023-11-19T09:08:53;27.00;27.00;13.80
56495;PMS5003;42804;55.762;38.084;2023-11-19T09:11:25;11.80;10.60;4.00
56495;PMS5003;42804;55.762;38.084;2023-11-19T09:13:55;33.40;30.40;20.60
56495;PMS5003;42804;55.762;38.084;2023-11-19T09:16:23;22.60;20.60;15.00
56495;PMS5003;42804;55.762;38.084;2023-11-19T09:18:52;21.40;21.40;14.00
56495;PMS5003;42804;55.762;38.084;2023-11-19T09:21:20;24.40;21.80;12.00
56495;PMS5003;42804;55.762;38.084;2023-11-19T09:23:49;31.80;21.00;13.00
56495;PMS5003;42804;55.762;38.084;2023-11-19T09:26:18;28.40;25.00;18.00
56495;PMS5003;42804;55.762;38.084;2023-11-19T09:28:46;30.00;26.20;16.80
56495;PMS5003;42804;55.762;38.084;2023-11-19T09:31:16;25.00;22.00;13.40
56495;PMS5003;42804;55.762;38.084;2023-11-19T09:33:44;32.60;30.00;19.00
56495;PMS5003;42804;55.762;38.084;2023-11-19T09:36:13;32.20;30.20;18.80
56495;PMS5003;42804;55.762;38.084;2023-11-19T09:38:44;32.00;27.20;18.40
56495;PMS5003;42804;55.762;38.084;2023-11-19T09:41:12;27.00;23.60;15.20
56495;PMS5003;42804;55.762;38.084;2023-11-19T09:43:41;37.00;33.00;22.40
56495;PMS5003;42804;55.762;38.084;2023-11-19T09:46:09;19.00;13.40;3.20
56495;PMS5003;42804;55.762;38.084;2023-11-19T09:48:40;30.80;27.20;21.00
56495;PMS5003;42804;55.762;38.084;2023-11-19T09:51:09;31.00;27.40;19.00
56495;PMS5003;42804;55.762;38.084;2023-11-19T09:53:37;26.40;24.80;16.80
56495;PMS5003;42804;55.762;38.084;2023-11-19T09:56:07;32.20;26.20;16.00
56495;PMS5003;42804;55.762;38.084;2023-11-19T09:58:37;22.00;20.20;15.20
56495;PMS5003;42804;55.762;38.084;2023-11-19T10:01:05;25.80;21.60;15.80
56495;PMS5003;42804;55.762;38.084;2023-11-19T10:03:41;27.40;24.60;14.20
56495;PMS5003;42804;55.762;38.084;2023-11-19T10:06:11;28.60;24.20;15.20
56495;PMS5003;42804;55.762;38.084;2023-11-19T10:08:39;31.60;27.80;20.20
56495;PMS5003;42804;55.762;38.084;2023-11-19T10:11:09;26.40;22.80;13.20
56495;PMS5003;42804;55.762;38.084;2023-11-19T10:13:39;33.80;29.20;18.60
56495;PMS5003;42804;55.762;38.084;2023-11-19T10:16:10;15.40;12.80;12.80
56495;PMS5003;42804;55.762;38.084;2023-11-19T10:18:44;33.40;28.60;20.60
56495;PMS5003;42804;55.762;38.084;2023-11-19T10:21:13;26.80;24.00;16.40
56495;PMS5003;42804;55.762;38.084;2023-11-19T10:23:47;28.20;24.20;15.80
56495;PMS5003;42804;55.762;38.084;2023-11-19T10:26:16;29.60;26.40;16.80
56495;PMS5003;42804;55.762;38.084;2023-11-19T10:28:46;30.80;26.40;19.40
56495;PMS5003;42804;55.762;38.084;2023-11-19T10:31:15;30.00;27.40;20.20
56495;PMS5003;42804;55.762;38.084;2023-11-19T10:33:46;36.00;30.60;19.20
56495;PMS5003;42804;55.762;38.084;2023-11-19T10:36:15;27.60;24.20;18.00
56495;PMS5003;42804;55.762;38.084;2023-11-19T10:38:51;30.00;26.80;18.40
56495;PMS5003;42804;55.762;38.084;2023-11-19T10:41:31;30.60;28.80;18.60
56495;PMS5003;42804;55.762;38.084;2023-11-19T10:44:00;27.00;21.60;15.00
56495;PMS5003;42804;55.762;38.084;2023-11-19T10:46:37;26.60;23.40;15.60
56495;PMS5003;42804;55.762;38.084;2023-11-19T10:49:08;34.00;27.40;18.00
56495;PMS5003;42804;55.762;38.084;2023-11-19T10:51:41;35.60;30.40;18.00
56495;PMS5003;42804;55.762;38.084;2023-11-19T10:54:13;30.20;22.80;15.00
56495;PMS5003;42804;55.762;38.084;2023-11-19T10:56:43;41.40;28.00;19.40
56495;PMS5003;42804;55.762;38.084;2023-11-19T10:59:13;32.00;25.60;16.00
56495;PMS5003;42804;55.762;38.084;2023-11-19T11:01:45;29.20;24.20;15.60
56495;PMS5003;42804;55.762;38.084;2023-11-19T11:04:22;35.60;31.20;19.00
56495;PMS5003;42804;55.762;38.084;2023-11-19T11:06:54;12.60;7.00;1.00
56495;PMS5003;42804;55.762;38.084;2023-11-19T11:09:22;27.40;25.80;18.80
56495;PMS5003;42804;55.762;38.084;2023-11-19T11:11:54;37.40;28.00;18.80
56495;PMS5003;42804;55.762;38.084;2023-11-19T11:14:31;29.20;24.60;17.60
56495;PMS5003;42804;55.762;38.084;2023-11-19T11:17:03;30.00;23.20;17.20
56495;PMS5003;42804;55.762;38.084;2023-11-19T11:19:36;27.20;24.80;15.00
56495;PMS5003;42804;55.762;38.084;2023-11-19T11:22:04;25.00;21.80;15.00
56495;PMS5003;42804;55.762;38.084;2023-11-19T11:24:45;24.80;23.20;16.80
56495;PMS5003;42804;55.762;38.084;2023-11-19T11:27:27;26.60;25.40;15.40
56495;PMS5003;42804;55.762;38.084;2023-11-19T11:30:05;41.60;30.40;18.20
56495;PMS5003;42804;55.762;38.084;2023-11-19T11:32:40;27.00;24.60;15.80
56495;PMS5003;42804;55.762;38.084;2023-11-19T11:35:21;27.40;23.60;15.20
56495;PMS5003;42804;55.762;38.084;2023-11-19T11:37:54;20.40;17.40;9.00
56495;PMS5003;42804;55.762;38.084;2023-11-19T11:40:24;28.40;21.80;15.00
56495;PMS5003;42804;55.762;38.084;2023-11-19T11:42:54;25.20;19.20;12.00
56495;PMS5003;42804;55.762;38.084;2023-11-19T11:45:34;24.60;21.60;12.60
56495;PMS5003;42804;55.762;38.084;2023-11-19T11:48:14;34.20;24.40;15.80
56495;PMS5003;42804;55.762;38.084;2023-11-19T11:50:51;24.60;18.20;13.40
56495;PMS5003;42804;55.762;38.084;2023-11-19T11:53:20;23.60;19.40;14.60
56495;PMS5003;42804;55.762;38.084;2023-11-19T11:55:52;22.00;19.80;12.80
56495;PMS5003;42804;55.762;38.084;2023-11-19T11:58:25;24.00;19.00;12.60
56495;PMS5003;42804;55.762;38.084;2023-11-19T12:00:53;36.60;27.00;19.80
56495;PMS5003;42804;55.762;38.084;2023-11-19T12:03:22;33.00;28.60;18.20
56495;PMS5003;42804;55.762;38.084;2023-11-19T12:05:51;29.20;26.20;18.40
56495;PMS5003;42804;55.762;38.084;2023-11-19T12:08:24;31.40;21.60;15.00
56495;PMS5003;42804;55.762;38.084;2023-11-19T12:10:53;28.40;26.60;16.20
56495;PMS5003;42804;55.762;38.084;2023-11-19T12:13:29;27.40;24.00;15.60
56495;PMS5003;42804;55.762;38.084;2023-11-19T12:16:11;29.60;22.80;16.00
56495;PMS5003;42804;55.762;38.084;2023-11-19T12:18:40;34.80;26.80;17.20
56495;PMS5003;42804;55.762;38.084;2023-11-19T12:21:11;30.00;25.40;15.80
56495;PMS5003;42804;55.762;38.084;2023-11-19T12:23:46;25.20;25.20;19.00
56495;PMS5003;42804;55.762;38.084;2023-11-19T12:28:59;27.40;23.40;13.80
56495;PMS5003;42804;55.762;38.084;2023-11-19T12:31:33;28.80;27.00;17.60
56495;PMS5003;42804;55.762;38.084;2023-11-19T12:34:07;25.60;20.20;14.20
56495;PMS5003;42804;55.762;38.084;2023-11-19T12:36:41;24.40;20.80;13.80
56495;PMS5003;42804;55.762;38.084;2023-11-19T12:39:10;27.40;24.00;14.00
56495;PMS5003;42804;55.762;38.084;2023-11-19T12:41:51;20.80;18.00;15.00
56495;PMS5003;42804;55.762;38.084;2023-11-19T12:44:20;30.40;27.80;16.60
56495;PMS5003;42804;55.762;38.084;2023-11-19T12:47:02;32.40;24.60;15.00
56495;PMS5003;42804;55.762;38.084;2023-11-19T12:49:31;28.60;21.80;15.80
56495;PMS5003;42804;55.762;38.084;2023-11-19T12:52:01;32.40;27.40;18.80
56495;PMS5003;42804;55.762;38.084;2023-11-19T12:54:33;26.60;22.40;18.00
56495;PMS5003;42804;55.762;38.084;2023-11-19T12:57:02;35.80;30.20;21.00
56495;PMS5003;42804;55.762;38.084;2023-11-19T12:59:32;25.00;21.60;13.00
56495;PMS5003;42804;55.762;38.084;2023-11-19T13:02:00;26.20;25.40;19.60
56495;PMS5003;42804;55.762;38.084;2023-11-19T13:04:30;21.20;18.80;15.00
56495;PMS5003;42804;55.762;38.084;2023-11-19T13:06:58;23.60;21.60;15.40
56495;PMS5003;42804;55.762;38.084;2023-11-19T13:09:31;23.60;21.60;15.20
56495;PMS5003;42804;55.762;38.084;2023-11-19T13:12:11;28.00;24.40;15.60
56495;PMS5003;42804;55.762;38.084;2023-11-19T13:14:40;27.40;26.20;16.40
56495;PMS5003;42804;55.762;38.084;2023-11-19T13:17:12;24.40;21.20;13.80
56495;PMS5003;42804;55.762;38.084;2023-11-19T13:19:41;19.40;18.40;9.80
56495;PMS5003;42804;55.762;38.084;2023-11-19T13:22:10;30.60;25.60;15.60
56495;PMS5003;42804;55.762;38.084;2023-11-19T13:24:40;23.20;22.20;15.80
56495;PMS5003;42804;55.762;38.084;2023-11-19T13:27:09;23.60;23.60;15.40
56495;PMS5003;42804;55.762;38.084;2023-11-19T13:29:38;27.80;22.40;15.80
56495;PMS5003;42804;55.762;38.084;2023-11-19T13:32:06;27.40;23.00;15.60
56495;PMS5003;42804;55.762;38.084;2023-11-19T13:34:35;29.80;26.00;17.60
56495;PMS5003;42804;55.762;38.084;2023-11-19T13:37:04;24.80;21.40;12.80
56495;PMS5003;42804;55.762;38.084;2023-11-19T13:39:32;27.80;22.20;15.40
56495;PMS5003;42804;55.762;38.084;2023-11-19T13:42:02;25.20;21.60;15.20
56495;PMS5003;42804;55.762;38.084;2023-11-19T13:44:34;29.40;25.00;16.40
56495;PMS5003;42804;55.762;38.084;2023-11-19T13:47:04;31.00;27.20;16.00
56495;PMS5003;42804;55.762;38.084;2023-11-19T13:49:32;34.40;27.60;15.60
56495;PMS5003;42804;55.762;38.084;2023-11-19T13:52:01;21.80;20.00;12.60
56495;PMS5003;42804;55.762;38.084;2023-11-19T13:54:30;36.80;30.40;18.00